Terminal Aerodrome Forecast
Issued by NWS

Home | Current Version | Previous Version | Text Only | Print | Product List | Glossary On
Versions: 1 2 3 4 5 6 7 8 9 10 11 12 13 14 15 16
000
FTUS45 KGJT 010053 AAA
TAFRIL
TAF AMD
KRIL 010053Z 0101/0124 VRB05KT P6SM VCSH FEW070 BKN110
     FM010200 29005KT P6SM FEW110 SCT250
     FM010500 11005KT P6SM SKC
     FM011500 00000KT P6SM FEW250
     FM012000 34009G15KT P6SM FEW100 SCT250=

USA.gov is the U.S. government's official web portal to all federal, state and local government web resources and services.